sensor_id;sensor_type;location;lat;lon;timestamp;temperature;humidity
21502;DHT22;27639;48.674;9.242;2022-12-07T00:01:08;7.80;62.70
21502;DHT22;27639;48.674;9.242;2022-12-07T00:03:34;7.80;62.60
21502;DHT22;27639;48.674;9.242;2022-12-07T00:06:01;7.80;62.70
21502;DHT22;27639;48.674;9.242;2022-12-07T00:08:27;7.80;62.70
21502;DHT22;27639;48.674;9.242;2022-12-07T00:10:53;7.90;62.70
21502;DHT22;27639;48.674;9.242;2022-12-07T00:13:18;7.80;62.60
21502;DHT22;27639;48.674;9.242;2022-12-07T00:15:44;7.90;62.70
21502;DHT22;27639;48.674;9.242;2022-12-07T00:18:10;7.90;62.70
21502;DHT22;27639;48.674;9.242;2022-12-07T00:20:36;7.90;62.70
21502;DHT22;27639;48.674;9.242;2022-12-07T00:23:01;8.00;62.70
21502;DHT22;27639;48.674;9.242;2022-12-07T00:25:27;8.00;62.70
21502;DHT22;27639;48.674;9.242;2022-12-07T00:27:53;8.00;62.70
21502;DHT22;27639;48.674;9.242;2022-12-07T00:30:22;8.00;63.50
21502;DHT22;27639;48.674;9.242;2022-12-07T00:32:48;8.00;62.60
21502;DHT22;27639;48.674;9.242;2022-12-07T00:35:13;8.00;62.60
21502;DHT22;27639;48.674;9.242;2022-12-07T00:37:39;8.00;62.50
21502;DHT22;27639;48.674;9.242;2022-12-07T00:40:05;8.00;62.50
21502;DHT22;27639;48.674;9.242;2022-12-07T00:42:31;8.10;62.50
21502;DHT22;27639;48.674;9.242;2022-12-07T00:44:56;8.10;62.60
21502;DHT22;27639;48.674;9.242;2022-12-07T00:47:22;8.10;62.40
21502;DHT22;27639;48.674;9.242;2022-12-07T00:49:47;8.10;62.40
21502;DHT22;27639;48.674;9.242;2022-12-07T00:52:13;8.10;62.30
21502;DHT22;27639;48.674;9.242;2022-12-07T00:54:40;8.00;62.20
21502;DHT22;27639;48.674;9.242;2022-12-07T00:57:05;8.00;62.20
21502;DHT22;27639;48.674;9.242;2022-12-07T00:59:31;8.00;62.20
21502;DHT22;27639;48.674;9.242;2022-12-07T01:01:56;8.00;62.20
21502;DHT22;27639;48.674;9.242;2022-12-07T01:04:22;7.90;62.30
21502;DHT22;27639;48.674;9.242;2022-12-07T01:06:47;7.90;62.40
21502;DHT22;27639;48.674;9.242;2022-12-07T01:09:13;7.90;62.40
21502;DHT22;27639;48.674;9.242;2022-12-07T01:11:38;7.90;62.30
21502;DHT22;27639;48.674;9.242;2022-12-07T01:14:04;7.90;62.40
21502;DHT22;27639;48.674;9.242;2022-12-07T01:16:31;7.90;62.30
21502;DHT22;27639;48.674;9.242;2022-12-07T01:18:58;7.90;62.40
21502;DHT22;27639;48.674;9.242;2022-12-07T01:21:26;7.90;62.40
21502;DHT22;27639;48.674;9.242;2022-12-07T01:23:52;7.90;62.40
21502;DHT22;27639;48.674;9.242;2022-12-07T01:26:20;7.80;62.50
21502;DHT22;27639;48.674;9.242;2022-12-07T01:28:46;7.80;63.30
21502;DHT22;27639;48.674;9.242;2022-12-07T01:31:20;7.80;63.30
21502;DHT22;27639;48.674;9.242;2022-12-07T01:33:48;7.80;62.50
21502;DHT22;27639;48.674;9.242;2022-12-07T01:36:17;7.80;62.60
21502;DHT22;27639;48.674;9.242;2022-12-07T01:38:44;7.80;62.60
21502;DHT22;27639;48.674;9.242;2022-12-07T01:41:11;7.80;62.60
21502;DHT22;27639;48.674;9.242;2022-12-07T01:43:36;7.80;62.60
21502;DHT22;27639;48.674;9.242;2022-12-07T01:46:03;7.80;62.50
21502;DHT22;27639;48.674;9.242;2022-12-07T01:48:39;7.80;62.50
21502;DHT22;27639;48.674;9.242;2022-12-07T01:51:09;7.70;62.30
21502;DHT22;27639;48.674;9.242;2022-12-07T01:53:37;7.80;62.50
21502;DHT22;27639;48.674;9.242;2022-12-07T01:56:03;7.80;62.50
21502;DHT22;27639;48.674;9.242;2022-12-07T01:58:30;7.80;62.40
21502;DHT22;27639;48.674;9.242;2022-12-07T02:00:55;7.80;62.00
21502;DHT22;27639;48.674;9.242;2022-12-07T02:03:29;7.80;62.10
21502;DHT22;27639;48.674;9.242;2022-12-07T02:05:55;7.80;61.80
21502;DHT22;27639;48.674;9.242;2022-12-07T02:08:21;7.70;61.80
21502;DHT22;27639;48.674;9.242;2022-12-07T02:10:47;7.70;61.70
21502;DHT22;27639;48.674;9.242;2022-12-07T02:13:19;7.70;61.50
21502;DHT22;27639;48.674;9.242;2022-12-07T02:24:11;7.70;61.60
21502;DHT22;27639;48.674;9.242;2022-12-07T02:29:13;7.60;62.70
21502;DHT22;27639;48.674;9.242;2022-12-07T02:31:46;7.70;61.90
21502;DHT22;27639;48.674;9.242;2022-12-07T02:34:50;7.70;61.80
21502;DHT22;27639;48.674;9.242;2022-12-07T02:37:26;7.60;61.60
21502;DHT22;27639;48.674;9.242;2022-12-07T02:40:50;7.60;61.90
21502;DHT22;27639;48.674;9.242;2022-12-07T02:45:38;7.50;61.90
21502;DHT22;27639;48.674;9.242;2022-12-07T02:48:07;7.50;62.00
21502;DHT22;27639;48.674;9.242;2022-12-07T02:50:33;7.60;62.00
21502;DHT22;27639;48.674;9.242;2022-12-07T02:52:59;7.60;62.00
21502;DHT22;27639;48.674;9.242;2022-12-07T02:55:29;7.50;61.90
21502;DHT22;27639;48.674;9.242;2022-12-07T02:58:17;7.50;61.80
21502;DHT22;27639;48.674;9.242;2022-12-07T03:03:28;7.60;61.80
21502;DHT22;27639;48.674;9.242;2022-12-07T03:06:03;7.60;61.70
21502;DHT22;27639;48.674;9.242;2022-12-07T03:11:04;7.60;61.60
21502;DHT22;27639;48.674;9.242;2022-12-07T03:13:49;7.60;61.60
21502;DHT22;27639;48.674;9.242;2022-12-07T03:16:31;7.60;61.60
21502;DHT22;27639;48.674;9.242;2022-12-07T03:19:02;7.50;61.50
21502;DHT22;27639;48.674;9.242;2022-12-07T03:21:40;7.50;61.60
21502;DHT22;27639;48.674;9.242;2022-12-07T03:24:12;7.50;61.50
21502;DHT22;27639;48.674;9.242;2022-12-07T03:26:44;7.50;61.60
21502;DHT22;27639;48.674;9.242;2022-12-07T03:29:25;7.50;61.70
21502;DHT22;27639;48.674;9.242;2022-12-07T03:34:47;7.50;61.60
21502;DHT22;27639;48.674;9.242;2022-12-07T03:37:26;7.50;61.70
21502;DHT22;27639;48.674;9.242;2022-12-07T03:40:08;7.40;61.50
21502;DHT22;27639;48.674;9.242;2022-12-07T03:42:35;7.50;61.70
21502;DHT22;27639;48.674;9.242;2022-12-07T03:45:02;7.50;61.80
21502;DHT22;27639;48.674;9.242;2022-12-07T03:55:32;7.60;62.00
21502;DHT22;27639;48.674;9.242;2022-12-07T03:58:03;7.50;61.30
21502;DHT22;27639;48.674;9.242;2022-12-07T04:00:30;7.50;61.50
21502;DHT22;27639;48.674;9.242;2022-12-07T04:02:56;7.40;61.40
21502;DHT22;27639;48.674;9.242;2022-12-07T04:05:22;7.40;61.40
21502;DHT22;27639;48.674;9.242;2022-12-07T04:07:47;7.40;61.40
21502;DHT22;27639;48.674;9.242;2022-12-07T04:10:14;7.40;61.40
21502;DHT22;27639;48.674;9.242;2022-12-07T04:12:39;7.40;61.40
21502;DHT22;27639;48.674;9.242;2022-12-07T04:15:06;7.40;61.50
21502;DHT22;27639;48.674;9.242;2022-12-07T04:17:31;7.30;61.40
21502;DHT22;27639;48.674;9.242;2022-12-07T04:19:57;7.20;61.40
21502;DHT22;27639;48.674;9.242;2022-12-07T04:22:23;7.20;61.50
21502;DHT22;27639;48.674;9.242;2022-12-07T04:24:48;7.20;61.70
21502;DHT22;27639;48.674;9.242;2022-12-07T04:27:14;7.10;61.60
21502;DHT22;27639;48.674;9.242;2022-12-07T04:29:39;7.10;61.60
21502;DHT22;27639;48.674;9.242;2022-12-07T04:32:05;7.10;61.70
21502;DHT22;27639;48.674;9.242;2022-12-07T04:34:31;7.10;61.80
21502;DHT22;27639;48.674;9.242;2022-12-07T04:36:57;7.20;61.80
21502;DHT22;27639;48.674;9.242;2022-12-07T04:39:23;7.20;61.80
21502;DHT22;27639;48.674;9.242;2022-12-07T04:41:49;7.30;61.80
21502;DHT22;27639;48.674;9.242;2022-12-07T04:44:15;7.30;61.70
21502;DHT22;27639;48.674;9.242;2022-12-07T04:46:42;7.30;61.50
21502;DHT22;27639;48.674;9.242;2022-12-07T04:49:09;7.20;61.50
21502;DHT22;27639;48.674;9.242;2022-12-07T04:51:34;7.20;61.40
21502;DHT22;27639;48.674;9.242;2022-12-07T04:54:00;7.10;61.40
21502;DHT22;27639;48.674;9.242;2022-12-07T04:56:25;7.10;61.40
21502;DHT22;27639;48.674;9.242;2022-12-07T04:58:52;7.00;61.30
21502;DHT22;27639;48.674;9.242;2022-12-07T05:01:19;7.00;61.50
21502;DHT22;27639;48.674;9.242;2022-12-07T05:03:45;6.90;61.50
21502;DHT22;27639;48.674;9.242;2022-12-07T05:06:11;6.80;61.50
21502;DHT22;27639;48.674;9.242;2022-12-07T05:08:37;6.70;61.50
21502;DHT22;27639;48.674;9.242;2022-12-07T05:11:04;6.60;61.70
21502;DHT22;27639;48.674;9.242;2022-12-07T05:13:30;6.70;61.80
21502;DHT22;27639;48.674;9.242;2022-12-07T05:15:55;6.70;61.80
21502;DHT22;27639;48.674;9.242;2022-12-07T05:18:21;6.70;61.80
21502;DHT22;27639;48.674;9.242;2022-12-07T05:20:47;6.70;61.80
21502;DHT22;27639;48.674;9.242;2022-12-07T05:23:13;6.70;61.70
21502;DHT22;27639;48.674;9.242;2022-12-07T05:25:38;6.70;61.70
21502;DHT22;27639;48.674;9.242;2022-12-07T05:28:05;6.70;61.70
21502;DHT22;27639;48.674;9.242;2022-12-07T05:30:30;6.70;61.80
21502;DHT22;27639;48.674;9.242;2022-12-07T05:32:56;6.70;61.80
21502;DHT22;27639;48.674;9.242;2022-12-07T05:35:22;6.70;61.70
21502;DHT22;27639;48.674;9.242;2022-12-07T05:37:48;6.70;61.80
21502;DHT22;27639;48.674;9.242;2022-12-07T05:40:14;6.70;61.80
21502;DHT22;27639;48.674;9.242;2022-12-07T05:42:40;6.70;61.80
21502;DHT22;27639;48.674;9.242;2022-12-07T05:45:07;6.70;61.70
21502;DHT22;27639;48.674;9.242;2022-12-07T05:47:33;6.80;61.60
21502;DHT22;27639;48.674;9.242;2022-12-07T05:49:59;6.90;61.50
21502;DHT22;27639;48.674;9.242;2022-12-07T05:52:24;6.90;61.40
21502;DHT22;27639;48.674;9.242;2022-12-07T05:54:50;6.90;61.40
21502;DHT22;27639;48.674;9.242;2022-12-07T05:57:16;6.80;61.20
21502;DHT22;27639;48.674;9.242;2022-12-07T05:59:41;6.90;61.10
21502;DHT22;27639;48.674;9.242;2022-12-07T06:02:10;6.90;60.90
21502;DHT22;27639;48.674;9.242;2022-12-07T06:04:38;6.80;60.60
21502;DHT22;27639;48.674;9.242;2022-12-07T06:07:05;6.80;60.60
21502;DHT22;27639;48.674;9.242;2022-12-07T06:09:31;6.80;60.80
21502;DHT22;27639;48.674;9.242;2022-12-07T06:11:57;6.80;60.80
21502;DHT22;27639;48.674;9.242;2022-12-07T06:14:42;6.80;60.90
21502;DHT22;27639;48.674;9.242;2022-12-07T06:17:07;6.70;61.00
21502;DHT22;27639;48.674;9.242;2022-12-07T06:19:33;6.70;60.90
21502;DHT22;27639;48.674;9.242;2022-12-07T06:21:59;6.60;60.90
21502;DHT22;27639;48.674;9.242;2022-12-07T06:24:24;6.60;61.00
21502;DHT22;27639;48.674;9.242;2022-12-07T06:26:51;6.50;61.10
21502;DHT22;27639;48.674;9.242;2022-12-07T06:29:17;6.50;61.30
21502;DHT22;27639;48.674;9.242;2022-12-07T06:31:43;6.50;61.30
21502;DHT22;27639;48.674;9.242;2022-12-07T06:34:11;6.60;61.40
21502;DHT22;27639;48.674;9.242;2022-12-07T06:36:37;6.60;61.40
21502;DHT22;27639;48.674;9.242;2022-12-07T06:39:03;6.60;61.20
21502;DHT22;27639;48.674;9.242;2022-12-07T06:41:29;6.60;61.20
21502;DHT22;27639;48.674;9.242;2022-12-07T06:43:55;6.60;61.20
21502;DHT22;27639;48.674;9.242;2022-12-07T06:46:20;6.60;61.20
21502;DHT22;27639;48.674;9.242;2022-12-07T06:48:46;6.60;61.20
21502;DHT22;27639;48.674;9.242;2022-12-07T06:51:11;6.60;61.20
21502;DHT22;27639;48.674;9.242;2022-12-07T06:53:37;6.50;60.90
21502;DHT22;27639;48.674;9.242;2022-12-07T06:56:04;6.50;61.00
21502;DHT22;27639;48.674;9.242;2022-12-07T06:58:30;6.50;61.10
21502;DHT22;27639;48.674;9.242;2022-12-07T07:00:55;6.50;61.10
21502;DHT22;27639;48.674;9.242;2022-12-07T07:03:21;6.50;61.00
21502;DHT22;27639;48.674;9.242;2022-12-07T07:05:47;6.40;60.90
21502;DHT22;27639;48.674;9.242;2022-12-07T07:08:13;6.40;60.80
21502;DHT22;27639;48.674;9.242;2022-12-07T07:10:39;6.40;60.90
21502;DHT22;27639;48.674;9.242;2022-12-07T07:13:05;6.30;60.90
21502;DHT22;27639;48.674;9.242;2022-12-07T07:15:31;6.30;61.10
21502;DHT22;27639;48.674;9.242;2022-12-07T07:17:57;6.30;61.30
21502;DHT22;27639;48.674;9.242;2022-12-07T07:20:23;6.30;61.40
21502;DHT22;27639;48.674;9.242;2022-12-07T07:22:49;6.30;61.40
21502;DHT22;27639;48.674;9.242;2022-12-07T07:25:15;6.40;61.40
21502;DHT22;27639;48.674;9.242;2022-12-07T07:27:41;6.40;61.40
21502;DHT22;27639;48.674;9.242;2022-12-07T07:30:07;6.40;61.40
21502;DHT22;27639;48.674;9.242;2022-12-07T07:32:33;6.40;61.40
21502;DHT22;27639;48.674;9.242;2022-12-07T07:34:58;6.50;61.50
21502;DHT22;27639;48.674;9.242;2022-12-07T07:37:24;6.50;61.50
21502;DHT22;27639;48.674;9.242;2022-12-07T07:39:50;6.50;61.50
21502;DHT22;27639;48.674;9.242;2022-12-07T07:42:16;6.50;61.50
21502;DHT22;27639;48.674;9.242;2022-12-07T07:44:41;6.50;61.50
21502;DHT22;27639;48.674;9.242;2022-12-07T07:47:07;6.60;61.60
21502;DHT22;27639;48.674;9.242;2022-12-07T07:49:32;6.60;61.60
21502;DHT22;27639;48.674;9.242;2022-12-07T07:51:58;6.70;61.80
21502;DHT22;27639;48.674;9.242;2022-12-07T07:54:24;6.70;61.60
21502;DHT22;27639;48.674;9.242;2022-12-07T07:56:49;6.70;61.50
21502;DHT22;27639;48.674;9.242;2022-12-07T07:59:16;6.70;61.50
21502;DHT22;27639;48.674;9.242;2022-12-07T08:01:41;6.70;61.60
21502;DHT22;27639;48.674;9.242;2022-12-07T08:04:07;6.70;61.50
21502;DHT22;27639;48.674;9.242;2022-12-07T08:06:33;6.80;61.50
21502;DHT22;27639;48.674;9.242;2022-12-07T08:08:59;6.80;61.40
21502;DHT22;27639;48.674;9.242;2022-12-07T08:11:24;6.80;61.40
21502;DHT22;27639;48.674;9.242;2022-12-07T08:13:50;6.70;61.30
21502;DHT22;27639;48.674;9.242;2022-12-07T08:16:16;6.70;61.40
21502;DHT22;27639;48.674;9.242;2022-12-07T08:18:43;6.80;61.50
21502;DHT22;27639;48.674;9.242;2022-12-07T08:21:12;6.80;61.30
21502;DHT22;27639;48.674;9.242;2022-12-07T08:23:38;6.80;61.30
21502;DHT22;27639;48.674;9.242;2022-12-07T08:26:06;6.80;61.20
21502;DHT22;27639;48.674;9.242;2022-12-07T08:28:32;6.80;61.30
21502;DHT22;27639;48.674;9.242;2022-12-07T08:31:24;6.90;61.40
21502;DHT22;27639;48.674;9.242;2022-12-07T08:33:49;6.90;61.20
21502;DHT22;27639;48.674;9.242;2022-12-07T08:36:16;6.90;61.50
21502;DHT22;27639;48.674;9.242;2022-12-07T08:38:42;7.00;61.50
21502;DHT22;27639;48.674;9.242;2022-12-07T08:41:08;7.00;61.30
21502;DHT22;27639;48.674;9.242;2022-12-07T08:43:34;6.90;61.20
21502;DHT22;27639;48.674;9.242;2022-12-07T08:46:08;7.00;61.20
21502;DHT22;27639;48.674;9.242;2022-12-07T08:48:36;6.90;61.10
21502;DHT22;27639;48.674;9.242;2022-12-07T08:51:02;7.00;61.30
21502;DHT22;27639;48.674;9.242;2022-12-07T08:53:29;6.90;61.10
21502;DHT22;27639;48.674;9.242;2022-12-07T08:55:55;6.90;61.20
21502;DHT22;27639;48.674;9.242;2022-12-07T08:58:22;7.00;61.20
21502;DHT22;27639;48.674;9.242;2022-12-07T09:00:47;7.00;61.20
21502;DHT22;27639;48.674;9.242;2022-12-07T09:03:13;7.00;61.00
21502;DHT22;27639;48.674;9.242;2022-12-07T09:05:38;7.10;61.20
21502;DHT22;27639;48.674;9.242;2022-12-07T09:08:04;7.20;61.20
21502;DHT22;27639;48.674;9.242;2022-12-07T09:10:30;7.20;60.70
21502;DHT22;27639;48.674;9.242;2022-12-07T09:12:56;7.30;60.80
21502;DHT22;27639;48.674;9.242;2022-12-07T09:15:29;7.30;60.50
21502;DHT22;27639;48.674;9.242;2022-12-07T09:17:55;7.30;60.50
21502;DHT22;27639;48.674;9.242;2022-12-07T09:20:21;7.40;60.60
21502;DHT22;27639;48.674;9.242;2022-12-07T09:22:46;7.40;60.40
21502;DHT22;27639;48.674;9.242;2022-12-07T09:25:12;7.50;60.30
21502;DHT22;27639;48.674;9.242;2022-12-07T09:27:37;7.50;60.10
21502;DHT22;27639;48.674;9.242;2022-12-07T09:30:05;7.50;60.30
21502;DHT22;27639;48.674;9.242;2022-12-07T09:32:30;7.50;60.10
21502;DHT22;27639;48.674;9.242;2022-12-07T09:34:56;7.50;60.10
21502;DHT22;27639;48.674;9.242;2022-12-07T09:37:22;7.50;60.20
21502;DHT22;27639;48.674;9.242;2022-12-07T09:39:48;7.60;60.40
21502;DHT22;27639;48.674;9.242;2022-12-07T09:42:35;7.60;60.20
21502;DHT22;27639;48.674;9.242;2022-12-07T09:45:04;7.70;60.10
21502;DHT22;27639;48.674;9.242;2022-12-07T09:47:30;7.70;59.90
21502;DHT22;27639;48.674;9.242;2022-12-07T09:50:05;7.70;59.60
21502;DHT22;27639;48.674;9.242;2022-12-07T09:52:31;7.70;59.20
21502;DHT22;27639;48.674;9.242;2022-12-07T09:54:57;7.70;58.80
21502;DHT22;27639;48.674;9.242;2022-12-07T09:57:32;7.70;58.40
21502;DHT22;27639;48.674;9.242;2022-12-07T10:00:03;7.70;58.40
21502;DHT22;27639;48.674;9.242;2022-12-07T10:02:41;7.80;58.40
21502;DHT22;27639;48.674;9.242;2022-12-07T10:05:13;7.80;58.10
21502;DHT22;27639;48.674;9.242;2022-12-07T10:07:39;7.90;58.30
21502;DHT22;27639;48.674;9.242;2022-12-07T10:10:27;8.00;58.20
21502;DHT22;27639;48.674;9.242;2022-12-07T10:13:00;8.00;57.70
21502;DHT22;27639;48.674;9.242;2022-12-07T10:15:51;8.10;57.80
21502;DHT22;27639;48.674;9.242;2022-12-07T10:18:26;8.00;57.50
21502;DHT22;27639;48.674;9.242;2022-12-07T10:21:12;8.00;57.50
21502;DHT22;27639;48.674;9.242;2022-12-07T10:24:05;8.00;57.60
21502;DHT22;27639;48.674;9.242;2022-12-07T10:26:52;8.10;57.20
21502;DHT22;27639;48.674;9.242;2022-12-07T10:29:24;8.10;57.40
21502;DHT22;27639;48.674;9.242;2022-12-07T10:31:59;8.20;57.60
21502;DHT22;27639;48.674;9.242;2022-12-07T10:34:34;8.30;57.30
21502;DHT22;27639;48.674;9.242;2022-12-07T10:44:44;8.30;57.00
21502;DHT22;27639;48.674;9.242;2022-12-07T10:47:29;8.40;57.10
21502;DHT22;27639;48.674;9.242;2022-12-07T11:09:52;8.50;56.40
21502;DHT22;27639;48.674;9.242;2022-12-07T11:21:14;8.60;56.20
21502;DHT22;27639;48.674;9.242;2022-12-07T11:23:52;8.60;56.20
21502;DHT22;27639;48.674;9.242;2022-12-07T11:34:32;8.60;55.90
21502;DHT22;27639;48.674;9.242;2022-12-07T11:37:05;8.60;56.00
21502;DHT22;27639;48.674;9.242;2022-12-07T11:39:48;8.70;56.10
21502;DHT22;27639;48.674;9.242;2022-12-07T11:42:21;8.70;55.90
21502;DHT22;27639;48.674;9.242;2022-12-07T11:44:57;8.80;55.80
21502;DHT22;27639;48.674;9.242;2022-12-07T11:47:58;8.70;55.60
21502;DHT22;27639;48.674;9.242;2022-12-07T11:53:02;8.70;55.80
21502;DHT22;27639;48.674;9.242;2022-12-07T11:58:11;8.60;55.60
21502;DHT22;27639;48.674;9.242;2022-12-07T12:00:40;8.70;56.40
21502;DHT22;27639;48.674;9.242;2022-12-07T12:03:13;8.70;55.90
21502;DHT22;27639;48.674;9.242;2022-12-07T12:05:41;8.80;55.70
21502;DHT22;27639;48.674;9.242;2022-12-07T12:08:21;8.80;55.70
21502;DHT22;27639;48.674;9.242;2022-12-07T12:20:05;8.70;55.40
21502;DHT22;27639;48.674;9.242;2022-12-07T12:22:45;8.70;55.70
21502;DHT22;27639;48.674;9.242;2022-12-07T12:27:50;8.90;55.70
21502;DHT22;27639;48.674;9.242;2022-12-07T12:30:43;8.90;55.70
21502;DHT22;27639;48.674;9.242;2022-12-07T12:33:32;8.80;55.10
21502;DHT22;27639;48.674;9.242;2022-12-07T12:36:18;8.80;55.70
21502;DHT22;27639;48.674;9.242;2022-12-07T12:47:37;8.80;55.10
21502;DHT22;27639;48.674;9.242;2022-12-07T12:53:00;8.70;55.20
21502;DHT22;27639;48.674;9.242;2022-12-07T12:58:28;8.70;55.60
21502;DHT22;27639;48.674;9.242;2022-12-07T13:04:01;8.80;55.40
21502;DHT22;27639;48.674;9.242;2022-12-07T13:08:56;8.80;55.70
21502;DHT22;27639;48.674;9.242;2022-12-07T13:11:35;8.80;55.70
21502;DHT22;27639;48.674;9.242;2022-12-07T13:14:40;8.80;55.60
21502;DHT22;27639;48.674;9.242;2022-12-07T13:17:11;8.70;55.50
21502;DHT22;27639;48.674;9.242;2022-12-07T13:19:53;8.70;55.70
21502;DHT22;27639;48.674;9.242;2022-12-07T13:27:37;8.70;55.70
21502;DHT22;27639;48.674;9.242;2022-12-07T13:30:17;8.80;55.80
21502;DHT22;27639;48.674;9.242;2022-12-07T13:32:43;8.80;55.70
21502;DHT22;27639;48.674;9.242;2022-12-07T13:35:32;8.90;55.80
21502;DHT22;27639;48.674;9.242;2022-12-07T13:38:00;8.90;55.60
21502;DHT22;27639;48.674;9.242;2022-12-07T13:40:27;8.90;55.70
21502;DHT22;27639;48.674;9.242;2022-12-07T13:43:03;8.90;55.50
21502;DHT22;27639;48.674;9.242;2022-12-07T13:45:31;9.00;55.40
21502;DHT22;27639;48.674;9.242;2022-12-07T13:50:57;9.10;55.50
21502;DHT22;27639;48.674;9.242;2022-12-07T13:53:23;9.00;55.50
21502;DHT22;27639;48.674;9.242;2022-12-07T13:55:49;9.00;55.60
21502;DHT22;27639;48.674;9.242;2022-12-07T13:58:15;9.10;55.60
21502;DHT22;27639;48.674;9.242;2022-12-07T14:00:42;9.10;55.90
21502;DHT22;27639;48.674;9.242;2022-12-07T14:05:43;9.10;55.90
21502;DHT22;27639;48.674;9.242;2022-12-07T14:10:55;9.00;55.80
21502;DHT22;27639;48.674;9.242;2022-12-07T14:13:37;9.00;55.80
21502;DHT22;27639;48.674;9.242;2022-12-07T14:18:43;9.00;55.90
21502;DHT22;27639;48.674;9.242;2022-12-07T14:21:21;9.00;55.90
21502;DHT22;27639;48.674;9.242;2022-12-07T14:26:37;9.10;55.90
21502;DHT22;27639;48.674;9.242;2022-12-07T14:29:28;9.00;55.80
21502;DHT22;27639;48.674;9.242;2022-12-07T14:31:55;9.00;55.70
21502;DHT22;27639;48.674;9.242;2022-12-07T14:34:21;9.10;55.80
21502;DHT22;27639;48.674;9.242;2022-12-07T14:36:47;9.10;55.80
21502;DHT22;27639;48.674;9.242;2022-12-07T14:39:13;9.00;55.70
21502;DHT22;27639;48.674;9.242;2022-12-07T14:41:38;9.10;55.70
21502;DHT22;27639;48.674;9.242;2022-12-07T14:44:20;9.10;55.80
21502;DHT22;27639;48.674;9.242;2022-12-07T14:46:47;9.10;55.80
21502;DHT22;27639;48.674;9.242;2022-12-07T14:49:13;9.00;55.70
21502;DHT22;27639;48.674;9.242;2022-12-07T14:51:40;9.00;55.60
21502;DHT22;27639;48.674;9.242;2022-12-07T14:54:13;9.00;55.60
21502;DHT22;27639;48.674;9.242;2022-12-07T14:56:40;9.00;55.50
21502;DHT22;27639;48.674;9.242;2022-12-07T14:59:07;9.00;55.60
21502;DHT22;27639;48.674;9.242;2022-12-07T15:01:34;9.00;55.60
21502;DHT22;27639;48.674;9.242;2022-12-07T15:03:59;8.90;55.60
21502;DHT22;27639;48.674;9.242;2022-12-07T15:06:25;8.90;55.50
21502;DHT22;27639;48.674;9.242;2022-12-07T15:08:50;8.80;55.40
21502;DHT22;27639;48.674;9.242;2022-12-07T15:11:17;8.80;55.60
21502;DHT22;27639;48.674;9.242;2022-12-07T15:13:43;8.80;55.60
21502;DHT22;27639;48.674;9.242;2022-12-07T15:16:27;8.70;55.50
21502;DHT22;27639;48.674;9.242;2022-12-07T15:18:52;8.70;55.50
21502;DHT22;27639;48.674;9.242;2022-12-07T15:21:18;8.70;55.50
21502;DHT22;27639;48.674;9.242;2022-12-07T15:23:46;8.70;55.50
21502;DHT22;27639;48.674;9.242;2022-12-07T15:26:12;8.70;55.40
21502;DHT22;27639;48.674;9.242;2022-12-07T15:28:37;8.70;55.40
21502;DHT22;27639;48.674;9.242;2022-12-07T15:31:03;8.70;55.40
21502;DHT22;27639;48.674;9.242;2022-12-07T15:33:28;8.70;55.40
21502;DHT22;27639;48.674;9.242;2022-12-07T15:35:54;8.60;55.30
21502;DHT22;27639;48.674;9.242;2022-12-07T15:38:20;8.60;55.40
21502;DHT22;27639;48.674;9.242;2022-12-07T15:40:48;8.60;55.40
21502;DHT22;27639;48.674;9.242;2022-12-07T15:43:14;8.60;55.40
21502;DHT22;27639;48.674;9.242;2022-12-07T15:45:58;8.60;55.40
21502;DHT22;27639;48.674;9.242;2022-12-07T15:48:24;8.60;55.40
21502;DHT22;27639;48.674;9.242;2022-12-07T15:50:50;8.60;55.40
21502;DHT22;27639;48.674;9.242;2022-12-07T15:53:16;8.60;55.40
21502;DHT22;27639;48.674;9.242;2022-12-07T15:55:41;8.60;55.40
21502;DHT22;27639;48.674;9.242;2022-12-07T15:58:07;8.60;55.40
21502;DHT22;27639;48.674;9.242;2022-12-07T16:00:33;8.60;55.40
21502;DHT22;27639;48.674;9.242;2022-12-07T16:02:58;8.60;55.40
21502;DHT22;27639;48.674;9.242;2022-12-07T16:05:24;8.60;55.40
21502;DHT22;27639;48.674;9.242;2022-12-07T16:07:49;8.50;55.40
21502;DHT22;27639;48.674;9.242;2022-12-07T16:10:15;8.60;55.50
21502;DHT22;27639;48.674;9.242;2022-12-07T16:12:40;8.60;55.60
21502;DHT22;27639;48.674;9.242;2022-12-07T16:15:06;8.50;55.60
21502;DHT22;27639;48.674;9.242;2022-12-07T16:17:32;8.50;55.60
21502;DHT22;27639;48.674;9.242;2022-12-07T16:19:58;8.50;55.70
21502;DHT22;27639;48.674;9.242;2022-12-07T16:22:23;8.50;55.80
21502;DHT22;27639;48.674;9.242;2022-12-07T16:24:49;8.50;55.90
21502;DHT22;27639;48.674;9.242;2022-12-07T16:27:15;8.50;56.00
21502;DHT22;27639;48.674;9.242;2022-12-07T16:29:41;8.40;56.00
21502;DHT22;27639;48.674;9.242;2022-12-07T16:32:07;8.40;56.00
21502;DHT22;27639;48.674;9.242;2022-12-07T16:34:32;8.40;56.10
21502;DHT22;27639;48.674;9.242;2022-12-07T16:36:58;8.30;56.00
21502;DHT22;27639;48.674;9.242;2022-12-07T16:39:23;8.30;56.20
21502;DHT22;27639;48.674;9.242;2022-12-07T16:41:49;8.30;56.20
21502;DHT22;27639;48.674;9.242;2022-12-07T16:44:15;8.20;56.20
21502;DHT22;27639;48.674;9.242;2022-12-07T16:46:42;8.20;56.30
21502;DHT22;27639;48.674;9.242;2022-12-07T16:49:12;8.20;56.40
21502;DHT22;27639;48.674;9.242;2022-12-07T16:51:38;8.20;56.40
21502;DHT22;27639;48.674;9.242;2022-12-07T16:54:04;8.10;56.50
21502;DHT22;27639;48.674;9.242;2022-12-07T16:56:30;8.10;56.60
21502;DHT22;27639;48.674;9.242;2022-12-07T16:58:58;8.10;56.70
21502;DHT22;27639;48.674;9.242;2022-12-07T17:01:23;8.10;56.80
21502;DHT22;27639;48.674;9.242;2022-12-07T17:03:50;8.10;56.80
21502;DHT22;27639;48.674;9.242;2022-12-07T17:06:23;8.00;56.80
21502;DHT22;27639;48.674;9.242;2022-12-07T17:08:50;8.10;56.90
21502;DHT22;27639;48.674;9.242;2022-12-07T17:11:19;8.00;56.80
21502;DHT22;27639;48.674;9.242;2022-12-07T17:13:45;8.00;56.90
21502;DHT22;27639;48.674;9.242;2022-12-07T17:16:29;8.00;56.80
21502;DHT22;27639;48.674;9.242;2022-12-07T17:18:55;7.90;56.70
21502;DHT22;27639;48.674;9.242;2022-12-07T17:21:21;7.90;56.70
21502;DHT22;27639;48.674;9.242;2022-12-07T17:23:48;7.90;56.70
21502;DHT22;27639;48.674;9.242;2022-12-07T17:26:20;7.90;56.70
21502;DHT22;27639;48.674;9.242;2022-12-07T17:28:46;7.90;56.80
21502;DHT22;27639;48.674;9.242;2022-12-07T17:31:14;7.90;56.70
21502;DHT22;27639;48.674;9.242;2022-12-07T17:33:40;7.80;56.60
21502;DHT22;27639;48.674;9.242;2022-12-07T17:38:41;7.80;56.60
21502;DHT22;27639;48.674;9.242;2022-12-07T17:41:14;7.80;56.70
21502;DHT22;27639;48.674;9.242;2022-12-07T17:44:05;7.80;56.70
21502;DHT22;27639;48.674;9.242;2022-12-07T17:46:31;7.70;56.80
21502;DHT22;27639;48.674;9.242;2022-12-07T17:48:58;7.70;56.80
21502;DHT22;27639;48.674;9.242;2022-12-07T17:51:24;7.70;56.80
21502;DHT22;27639;48.674;9.242;2022-12-07T17:54:09;7.70;56.80
21502;DHT22;27639;48.674;9.242;2022-12-07T17:56:35;7.60;56.80
21502;DHT22;27639;48.674;9.242;2022-12-07T17:59:01;7.70;56.90
21502;DHT22;27639;48.674;9.242;2022-12-07T18:01:26;7.70;56.90
21502;DHT22;27639;48.674;9.242;2022-12-07T18:03:52;7.70;56.90
21502;DHT22;27639;48.674;9.242;2022-12-07T18:06:18;7.70;56.80
21502;DHT22;27639;48.674;9.242;2022-12-07T18:08:43;7.70;56.80